Time;durP1;ratioP1;P1;durP2;ratioP2;P2;SDS_P1;SDS_P2;PMS_P1;PMS_P2;Temp;Humidity;BMP_temperature;BMP_pressure;BME280_temperature;BME280_humidity;BME280_pressure;Samples;Min_cycle;Max_cycle;Signal;HPM_P1;HPM_P2
2021/04/13 00:01:33;;;;;;;4.35;4.05;;;;;;;;;;5113915;28;20027;-69
2021/04/13 00:04:05;;;;;;;3.83;3.63;;;;;;;;;;5113875;28;20458;-69
2021/04/13 00:06:32;;;;;;;4.28;3.88;;;;;;;;;;5113780;28;20370;-71
2021/04/13 00:08:59;;;;;;;3.80;3.55;;;;;;;;;;5095597;28;20026;-71
2021/04/13 00:11:25;;;;;;;3.85;3.55;;;;;;;;;;5095566;28;20040;-71
2021/04/13 00:13:52;;;;;;;3.65;3.40;;;;;;;;;;5095921;28;20039;-70
2021/04/13 00:16:20;;;;;;;3.63;3.33;;;;;;;;;;5113783;28;20020;-70
2021/04/13 00:18:46;;;;;;;3.97;3.65;;;;;;;;;;5113908;28;20016;-70
2021/04/13 00:21:20;;;;;;;3.70;3.47;;;;;;;;;;5113868;28;20015;-70
2021/04/13 00:23:45;;;;;;;3.30;3.10;;;;;;;;;;5113770;28;20453;-70
2021/04/13 00:26:20;;;;;;;4.03;3.72;;;;;;;;;;5113739;28;20031;-70
2021/04/13 00:28:46;;;;;;;3.78;3.38;;;;;;;;;;5113685;28;20035;-70
2021/04/13 00:31:38;;;;;;;3.22;3.00;;;;;;;;;;5113605;28;20024;-70
2021/04/13 00:34:04;;;;;;;3.42;3.17;;;;;;;;;;5095840;28;20043;-71
2021/04/13 00:36:30;;;;;;;2.95;2.75;;;;;;;;;;5117679;28;20022;-71
2021/04/13 00:38:55;;;;;;;3.25;3.05;;;;;;;;;;5117652;28;20525;-71
2021/04/13 00:41:30;;;;;;;4.07;3.13;;;;;;;;;;5117628;28;20098;-71
2021/04/13 00:43:55;;;;;;;3.20;2.88;;;;;;;;;;5117633;28;20053;-70
2021/04/13 00:46:41;;;;;;;2.80;2.67;;;;;;;;;;5117555;28;20031;-70
2021/04/13 00:49:08;;;;;;;2.90;2.70;;;;;;;;;;5116896;28;20466;-70
2021/04/13 00:51:35;;;;;;;2.42;2.22;;;;;;;;;;5117686;28;20102;-70
2021/04/13 00:54:06;;;;;;;2.53;2.42;;;;;;;;;;5117431;28;20027;-70
2021/04/13 00:56:33;;;;;;;3.40;3.20;;;;;;;;;;5117277;28;20028;-70
2021/04/13 00:59:13;;;;;;;2.95;2.75;;;;;;;;;;5116933;28;20032;-70
2021/04/13 01:01:41;;;;;;;2.63;2.43;;;;;;;;;;5116289;28;20376;-70
2021/04/13 01:04:12;;;;;;;2.58;2.40;;;;;;;;;;5117258;28;20020;-70
2021/04/13 01:06:37;;;;;;;;;;;;;;;;;;5117791;28;20031;-70
2021/04/13 01:09:03;;;;;;;2.50;2.30;;;;;;;;;;5117023;28;19948;-71
2021/04/13 01:11:33;;;;;;;2.35;2.10;;;;;;;;;;5117099;28;20027;-71
2021/04/13 01:14:00;;;;;;;2.83;2.58;;;;;;;;;;5117238;28;20031;-71
2021/04/13 01:16:55;;;;;;;2.65;2.55;;;;;;;;;;5116965;28;20172;-71
2021/04/13 01:19:31;;;;;;;1.75;1.65;;;;;;;;;;5103468;28;20031;-69
2021/04/13 01:22:03;;;;;;;3.03;2.10;;;;;;;;;;5116867;28;20377;-70
2021/04/13 01:24:38;;;;;;;2.08;1.88;;;;;;;;;;5116982;28;20102;-69
2021/04/13 01:27:08;;;;;;;3.70;2.90;;;;;;;;;;5116819;28;20118;-68
2021/04/13 01:29:35;;;;;;;2.40;2.20;;;;;;;;;;5116743;28;20035;-68
2021/04/13 01:32:00;;;;;;;2.65;2.30;;;;;;;;;;5116441;28;20024;-68
2021/04/13 01:34:48;;;;;;;2.38;2.17;;;;;;;;;;5115306;28;20365;-68
2021/04/13 01:38:00;;;;;;;2.00;1.90;;;;;;;;;;5116580;28;20426;-67
2021/04/13 01:40:17;;;;;;;2.20;2.10;;;;;;;;;;5113353;28;20040;-67
2021/04/13 01:42:43;;;;;;;2.40;2.20;;;;;;;;;;5115344;28;20262;-67
2021/04/13 01:45:11;;;;;;;2.42;2.33;;;;;;;;;;5116328;28;20065;-67
2021/04/13 01:47:37;;;;;;;2.47;2.28;;;;;;;;;;5115447;28;20031;-67
2021/04/13 01:50:07;;;;;;;2.63;2.35;;;;;;;;;;5132280;27;20015;-67
2021/04/13 01:52:37;;;;;;;3.33;2.10;;;;;;;;;;5116349;28;20414;-67
2021/04/13 01:55:06;;;;;;;2.38;2.28;;;;;;;;;;5132136;27;20024;-67
2021/04/13 01:57:35;;;;;;;2.20;2.00;;;;;;;;;;5132180;27;20584;-67
2021/04/13 02:00:06;;;;;;;2.00;1.90;;;;;;;;;;5116461;28;20027;-67
2021/04/13 02:02:44;;;;;;;2.13;1.90;;;;;;;;;;5116178;28;20473;-67
2021/04/13 02:05:12;;;;;;;2.45;2.15;;;;;;;;;;5116142;28;20042;-67
2021/04/13 02:08:05;;;;;;;1.85;1.75;;;;;;;;;;5116246;28;20388;-67
2021/04/13 02:10:52;;;;;;;2.20;2.00;;;;;;;;;;5116003;28;20114;-68
2021/04/13 02:13:34;;;;;;;2.40;2.20;;;;;;;;;;5116041;28;20027;-68
2021/04/13 02:16:00;;;;;;;2.72;1.88;;;;;;;;;;5115757;28;20050;-68
2021/04/13 02:18:33;;;;;;;2.05;1.90;;;;;;;;;;5115702;28;20480;-68
2021/04/13 02:20:58;;;;;;;2.03;1.85;;;;;;;;;;5115921;28;20500;-71
2021/04/13 02:23:29;;;;;;;2.60;2.40;;;;;;;;;;5097361;28;20023;-70
2021/04/13 02:25:56;;;;;;;2.20;2.00;;;;;;;;;;5114326;28;20027;-70
2021/04/13 02:28:21;;;;;;;1.98;1.85;;;;;;;;;;5115651;28;20033;-70
2021/04/13 02:30:47;;;;;;;2.33;2.20;;;;;;;;;;5096784;28;20042;-70
2021/04/13 02:33:19;;;;;;;2.45;2.13;;;;;;;;;;5115570;28;20046;-71
2021/04/13 02:35:45;;;;;;;1.77;1.67;;;;;;;;;;5115402;28;20132;-70
2021/04/13 02:38:17;;;;;;;1.63;1.52;;;;;;;;;;5115321;28;20032;-70
2021/04/13 02:40:51;;;;;;;1.52;1.40;;;;;;;;;;5115198;28;20027;-70
2021/04/13 02:43:24;;;;;;;1.90;1.80;;;;;;;;;;5115393;28;20065;-70
2021/04/13 02:45:51;;;;;;;2.05;1.60;;;;;;;;;;5115335;28;20028;-70
2021/04/13 02:48:17;;;;;;;1.73;1.63;;;;;;;;;;5115223;28;20012;-68
2021/04/13 02:50:45;;;;;;;1.88;1.77;;;;;;;;;;5096798;28;20028;-67
2021/04/13 02:53:13;;;;;;;1.75;1.65;;;;;;;;;;5096696;28;20030;-67
2021/04/13 02:55:46;;;;;;;1.40;1.30;;;;;;;;;;5114873;28;20034;-68
2021/04/13 02:58:12;;;;;;;1.80;1.70;;;;;;;;;;5114367;28;20039;-68
2021/04/13 03:00:44;;;;;;;1.40;1.30;;;;;;;;;;5114941;28;20038;-67
2021/04/13 03:03:31;;;;;;;1.70;1.60;;;;;;;;;;5114882;28;20028;-67
2021/04/13 03:05:57;;;;;;;1.45;1.35;;;;;;;;;;5115061;28;20034;-68
2021/04/13 03:08:23;;;;;;;1.38;1.27;;;;;;;;;;5114682;28;20015;-68
2021/04/13 03:10:53;;;;;;;1.40;1.30;;;;;;;;;;5114730;28;20032;-67
2021/04/13 03:13:19;;;;;;;;;;;;;;;;;;5115161;28;20023;-67
2021/04/13 03:15:50;;;;;;;1.35;1.25;;;;;;;;;;5114429;28;20370;-67
2021/04/13 03:18:17;;;;;;;1.70;1.60;;;;;;;;;;5114741;28;20020;-68
2021/04/13 03:20:46;;;;;;;1.35;1.05;;;;;;;;;;5114787;28;20011;-67
2021/04/13 03:23:14;;;;;;;2.40;1.40;;;;;;;;;;5096508;28;20454;-67
2021/04/13 03:25:52;;;;;;;1.35;1.23;;;;;;;;;;5114731;28;20028;-68
2021/04/13 03:28:20;;;;;;;2.22;1.40;;;;;;;;;;5114504;28;20031;-67
2021/04/13 03:30:45;;;;;;;1.10;1.10;;;;;;;;;;5114551;28;20038;-68
2021/04/13 03:33:16;;;;;;;1.27;1.23;;;;;;;;;;5114279;28;20024;-68
2021/04/13 03:35:42;;;;;;;1.23;1.13;;;;;;;;;;5114352;28;20024;-68
2021/04/13 03:38:09;;;;;;;0.98;0.90;;;;;;;;;;5114516;28;20484;-67
2021/04/13 03:40:36;;;;;;;1.20;1.10;;;;;;;;;;5114319;28;20034;-68
2021/04/13 03:43:08;;;;;;;1.67;1.10;;;;;;;;;;5114424;28;20118;-67
2021/04/13 03:45:35;;;;;;;1.10;1.10;;;;;;;;;;5114377;28;20413;-69
2021/04/13 03:48:02;;;;;;;1.13;1.00;;;;;;;;;;5114346;28;20400;-70
2021/04/13 03:50:29;;;;;;;0.90;0.90;;;;;;;;;;5114234;28;20114;-70
2021/04/13 03:53:06;;;;;;;0.90;0.90;;;;;;;;;;5113645;28;20553;-69
2021/04/13 03:55:34;;;;;;;0.90;0.90;;;;;;;;;;5114047;28;20392;-69
2021/04/13 03:58:16;;;;;;;2.38;0.98;;;;;;;;;;5112419;28;20074;-70
2021/04/13 04:00:42;;;;;;;1.10;1.10;;;;;;;;;;5114051;28;20043;-70
2021/04/13 04:03:09;;;;;;;1.00;1.00;;;;;;;;;;5114115;28;20065;-70
2021/04/13 04:05:52;;;;;;;1.10;1.00;;;;;;;;;;5113894;28;20028;-69
2021/04/13 04:08:29;;;;;;;1.20;1.13;;;;;;;;;;5113975;28;20431;-69
2021/04/13 04:10:57;;;;;;;0.80;0.80;;;;;;;;;;5113611;28;20127;-69
2021/04/13 04:13:32;;;;;;;1.35;1.25;;;;;;;;;;5113998;28;20022;-64
2021/04/13 04:16:03;;;;;;;1.20;1.10;;;;;;;;;;5113950;28;20027;-64
2021/04/13 04:18:42;;;;;;;1.13;1.10;;;;;;;;;;5113056;28;20115;-64
2021/04/13 04:21:33;;;;;;;1.00;1.00;;;;;;;;;;5110288;28;20063;-65
2021/04/13 04:24:08;;;;;;;1.73;1.10;;;;;;;;;;5109298;28;20191;-65
2021/04/13 04:27:00;;;;;;;1.35;1.13;;;;;;;;;;5113832;28;20043;-65
2021/04/13 04:29:45;;;;;;;1.13;1.13;;;;;;;;;;5091018;28;20040;-65
2021/04/13 04:32:11;;;;;;;0.90;0.90;;;;;;;;;;5092746;28;20374;-65
2021/04/13 04:34:43;;;;;;;1.10;1.00;;;;;;;;;;5093481;28;20077;-65
2021/04/13 04:37:27;;;;;;;0.93;0.93;;;;;;;;;;5112993;28;20110;-65
2021/04/13 04:40:11;;;;;;;1.30;0.88;;;;;;;;;;5103532;28;20016;-64
2021/04/13 04:42:44;;;;;;;0.90;0.90;;;;;;;;;;5109471;28;20042;-64
2021/04/13 04:45:16;;;;;;;0.73;0.70;;;;;;;;;;5113783;28;20028;-64
2021/04/13 04:47:42;;;;;;;2.08;1.60;;;;;;;;;;5113645;28;20675;-64
2021/04/13 04:50:09;;;;;;;1.17;1.10;;;;;;;;;;5112835;28;20016;-63
2021/04/13 04:52:35;;;;;;;1.02;1.02;;;;;;;;;;5094890;28;20031;-63
2021/04/13 04:55:01;;;;;;;1.65;1.55;;;;;;;;;;5113391;28;20012;-64
2021/04/13 04:57:27;;;;;;;2.17;1.10;;;;;;;;;;5113293;28;20031;-64
2021/04/13 04:59:53;;;;;;;1.38;1.27;;;;;;;;;;5113666;28;20035;-64
2021/04/13 05:02:18;;;;;;;1.83;1.73;;;;;;;;;;5113382;28;20084;-64
2021/04/13 05:04:47;;;;;;;1.40;1.30;;;;;;;;;;5113277;28;20020;-64
2021/04/13 05:07:12;;;;;;;3.22;1.40;;;;;;;;;;5113210;28;20039;-64
2021/04/13 05:09:38;;;;;;;1.35;1.15;;;;;;;;;;5113467;28;20020;-63
2021/04/13 05:12:04;;;;;;;1.10;1.10;;;;;;;;;;5113269;28;20425;-63
2021/04/13 05:14:30;;;;;;;1.30;1.10;;;;;;;;;;5113451;28;20406;-64
2021/04/13 05:16:55;;;;;;;1.50;1.40;;;;;;;;;;5094898;28;20032;-64
2021/04/13 05:19:21;;;;;;;1.38;1.27;;;;;;;;;;5129120;28;20377;-64
2021/04/13 05:21:47;;;;;;;1.88;1.65;;;;;;;;;;5114614;28;20156;-64
2021/04/13 05:24:13;;;;;;;2.17;2.08;;;;;;;;;;5116853;28;20087;-63
2021/04/13 05:26:38;;;;;;;1.70;1.60;;;;;;;;;;5116641;28;20114;-63
2021/04/13 05:29:06;;;;;;;3.20;3.00;;;;;;;;;;5116879;28;20078;-63
2021/04/13 05:31:38;;;;;;;1.70;1.60;;;;;;;;;;5116660;28;20032;-63
2021/04/13 05:34:04;;;;;;;2.33;2.15;;;;;;;;;;5116608;28;20038;-63
2021/04/13 05:36:29;;;;;;;2.00;1.90;;;;;;;;;;5116525;28;20461;-63
2021/04/13 05:38:55;;;;;;;3.78;3.00;;;;;;;;;;5116724;28;20024;-63
2021/04/13 05:41:20;;;;;;;7.40;3.85;;;;;;;;;;5116356;28;20112;-63
2021/04/13 05:43:46;;;;;;;5.65;3.20;;;;;;;;;;5097791;28;20028;-63
2021/04/13 05:46:15;;;;;;;6.85;3.67;;;;;;;;;;5116331;28;20020;-63
2021/04/13 05:48:40;;;;;;;4.45;2.90;;;;;;;;;;5098362;28;20027;-62
2021/04/13 05:51:06;;;;;;;6.35;3.92;;;;;;;;;;5116391;28;20019;-63
2021/04/13 05:53:32;;;;;;;4.65;3.05;;;;;;;;;;5098026;28;20032;-63
2021/04/13 05:55:58;;;;;;;1.92;1.70;;;;;;;;;;5116229;28;20314;-63
2021/04/13 05:58:25;;;;;;;3.08;2.10;;;;;;;;;;5115747;28;20085;-63
2021/04/13 06:00:54;;;;;;;3.33;2.08;;;;;;;;;;5116068;28;20665;-63
2021/04/13 06:03:21;;;;;;;2.35;2.15;;;;;;;;;;5097762;28;20456;-63
2021/04/13 06:05:47;;;;;;;6.38;4.28;;;;;;;;;;5116186;28;20024;-63
2021/04/13 06:08:13;;;;;;;2.58;1.90;;;;;;;;;;5116263;28;20381;-63
2021/04/13 06:10:38;;;;;;;2.13;1.80;;;;;;;;;;5116094;28;20027;-63
2021/04/13 06:13:04;;;;;;;3.47;2.25;;;;;;;;;;5116120;28;20063;-63
2021/04/13 06:15:31;;;;;;;4.82;1.98;;;;;;;;;;5095007;28;20696;-63
2021/04/13 06:17:56;;;;;;;4.65;3.25;;;;;;;;;;5109545;28;20362;-63
2021/04/13 06:20:22;;;;;;;5.50;4.53;;;;;;;;;;5116401;27;20031;-63
2021/04/13 06:22:48;;;;;;;3.15;2.70;;;;;;;;;;5114353;28;20101;-63
2021/04/13 06:25:15;;;;;;;2.50;2.30;;;;;;;;;;5131003;27;20561;-63
2021/04/13 06:27:41;;;;;;;4.85;4.20;;;;;;;;;;5115281;28;20028;-63
2021/04/13 06:30:07;;;;;;;8.65;3.63;;;;;;;;;;5115583;28;20032;-64
2021/04/13 06:32:32;;;;;;;4.88;4.38;;;;;;;;;;5111894;28;20016;-68
2021/04/13 06:34:58;;;;;;;8.15;4.57;;;;;;;;;;5120239;27;20030;-68
2021/04/13 06:37:24;;;;;;;6.47;4.10;;;;;;;;;;5114802;28;20131;-66
2021/04/13 06:39:50;;;;;;;5.05;3.30;;;;;;;;;;5112736;28;20076;-65
2021/04/13 06:42:27;;;;;;;5.55;3.35;;;;;;;;;;5097112;28;20016;-65
2021/04/13 06:45:16;;;;;;;3.72;2.80;;;;;;;;;;5115179;28;20031;-65
2021/04/13 06:47:42;;;;;;;3.92;3.17;;;;;;;;;;5075102;28;20486;-65
2021/04/13 06:50:23;;;;;;;8.55;4.55;;;;;;;;;;5096146;28;20016;-65
2021/04/13 06:52:56;;;;;;;3.45;1.80;;;;;;;;;;5109372;28;20030;-64
2021/04/13 06:55:37;;;;;;;137.13;60.08;;;;;;;;;;5113672;28;20177;-64
2021/04/13 06:58:06;;;;;;;235.73;123.72;;;;;;;;;;5109920;28;20040;-64
2021/04/13 07:00:37;;;;;;;241.15;151.40;;;;;;;;;;5114963;28;20024;-64
2021/04/13 07:03:09;;;;;;;137.90;95.55;;;;;;;;;;5114848;28;20458;-66
2021/04/13 07:05:54;;;;;;;206.13;144.98;;;;;;;;;;5114702;28;20085;-65
2021/04/13 07:08:27;;;;;;;17.30;15.45;;;;;;;;;;5113475;28;20035;-64
2021/04/13 07:11:06;;;;;;;160.98;144.40;;;;;;;;;;5113434;28;20123;-64
2021/04/13 07:13:37;;;;;;;21.80;19.63;;;;;;;;;;5114698;28;20059;-64
2021/04/13 07:16:12;;;;;;;118.63;106.68;;;;;;;;;;5114378;28;20492;-64
2021/04/13 07:18:41;;;;;;;6.72;6.13;;;;;;;;;;5114403;28;20040;-64
2021/04/13 07:21:09;;;;;;;10.07;9.00;;;;;;;;;;5113569;28;20261;-64
2021/04/13 07:23:55;;;;;;;3.53;2.80;;;;;;;;;;5114262;28;20032;-64
2021/04/13 07:26:24;;;;;;;3.85;2.60;;;;;;;;;;5113610;28;20160;-65
2021/04/13 07:28:53;;;;;;;2.30;2.10;;;;;;;;;;5114232;28;20380;-65
2021/04/13 07:31:22;;;;;;;2.45;2.25;;;;;;;;;;5112441;28;20393;-65
2021/04/13 07:33:48;;;;;;;2.10;2.00;;;;;;;;;;5114149;28;20060;-65
2021/04/13 07:36:17;;;;;;;5.70;4.10;;;;;;;;;;5113595;28;20039;-65
2021/04/13 07:38:44;;;;;;;310.52;127.00;;;;;;;;;;5113486;28;20011;-66
2021/04/13 07:41:13;;;;;;;265.60;126.50;;;;;;;;;;5095746;28;20039;-66
2021/04/13 07:43:45;;;;;;;669.80;321.33;;;;;;;;;;5095447;28;20114;-66
2021/04/13 07:46:10;;;;;;;522.20;219.73;;;;;;;;;;5113991;28;20110;-66
2021/04/13 07:48:36;;;;;;;111.05;43.10;;;;;;;;;;5110920;28;20102;-64
2021/04/13 07:51:13;;;;;;;738.20;306.60;;;;;;;;;;5113945;28;20084;-64
2021/04/13 07:53:50;;;;;;;736.80;293.48;;;;;;;;;;5114055;28;20072;-64
2021/04/13 07:56:31;;;;;;;1082.45;440.45;;;;;;;;;;5113932;28;20429;-64
2021/04/13 07:59:14;;;;;;;404.75;155.85;;;;;;;;;;5113492;28;20031;-64
2021/04/13 08:01:39;;;;;;;675.28;242.65;;;;;;;;;;5114146;28;20031;-64
2021/04/13 08:04:05;;;;;;;770.47;294.75;;;;;;;;;;5110284;28;20011;-64
2021/04/13 08:06:31;;;;;;;147.23;46.65;;;;;;;;;;5111411;28;20027;-64
2021/04/13 08:09:09;;;;;;;1431.15;567.15;;;;;;;;;;5112736;28;20024;-64
2021/04/13 08:11:35;;;;;;;665.00;261.33;;;;;;;;;;5113672;28;20023;-64
2021/04/13 08:14:13;;;;;;;308.40;104.22;;;;;;;;;;5095677;28;20400;-64
2021/04/13 08:16:39;;;;;;;856.05;348.02;;;;;;;;;;5114022;28;20028;-64
2021/04/13 08:19:10;;;;;;;742.85;322.10;;;;;;;;;;5129829;28;20020;-64
2021/04/13 08:21:37;;;;;;;978.33;460.48;;;;;;;;;;5113863;28;20024;-65
2021/04/13 08:24:02;;;;;;;231.30;103.32;;;;;;;;;;5113917;28;20019;-64
2021/04/13 08:26:31;;;;;;;548.75;304.63;;;;;;;;;;5112011;28;20035;-65
2021/04/13 08:29:03;;;;;;;397.50;207.77;;;;;;;;;;5113967;28;20035;-65
2021/04/13 08:34:43;;;;;;;909.80;516.17;;;;;;;;;;5113686;28;20024;-65
2021/04/13 08:37:24;;;;;;;457.83;268.88;;;;;;;;;;5113542;28;20027;-64
2021/04/13 08:39:50;;;;;;;290.65;194.35;;;;;;;;;;5113388;28;20027;-64
2021/04/13 08:42:30;;;;;;;91.93;56.05;;;;;;;;;;5113475;28;20016;-64
2021/04/13 08:45:02;;;;;;;182.27;124.43;;;;;;;;;;5113061;28;20358;-64
2021/04/13 08:47:39;;;;;;;21.17;16.67;;;;;;;;;;5112725;28;20036;-64
2021/04/13 08:50:23;;;;;;;46.90;36.38;;;;;;;;;;5111794;28;20366;-64
2021/04/13 08:53:02;;;;;;;129.85;105.15;;;;;;;;;;5128837;28;20036;-64
2021/04/13 08:55:31;;;;;;;63.58;56.65;;;;;;;;;;5113959;28;20538;-64
2021/04/13 08:58:03;;;;;;;44.40;39.03;;;;;;;;;;5116556;28;20044;-66
2021/04/13 09:00:58;;;;;;;16.17;12.90;;;;;;;;;;5115872;28;20560;-64
2021/04/13 09:03:28;;;;;;;33.63;30.02;;;;;;;;;;5103283;28;20051;-64
2021/04/13 09:06:32;;;;;;;20.17;13.40;;;;;;;;;;5116873;28;20035;-64
2021/04/13 09:09:07;;;;;;;35.03;27.98;;;;;;;;;;5053550;28;20094;-64
2021/04/13 09:11:49;;;;;;;24.63;21.73;;;;;;;;;;5053849;28;20041;-64
2021/04/13 09:14:25;;;;;;;22.90;18.73;;;;;;;;;;5093529;27;20126;-64
2021/04/13 09:16:58;;;;;;;33.67;30.08;;;;;;;;;;5116322;28;20027;-64
2021/04/13 09:19:30;;;;;;;6.72;6.10;;;;;;;;;;5116527;27;20465;-64
2021/04/13 09:21:58;;;;;;;9.95;9.07;;;;;;;;;;5116534;28;20045;-64
2021/04/13 09:24:23;;;;;;;7.00;6.40;;;;;;;;;;5115197;28;20031;-64
2021/04/13 09:27:07;;;;;;;6.22;5.72;;;;;;;;;;5116303;28;20393;-64
2021/04/13 09:29:36;;;;;;;10.80;8.32;;;;;;;;;;5132196;27;20077;-64
2021/04/13 09:32:03;;;;;;;12.30;10.93;;;;;;;;;;5116645;28;20015;-64
2021/04/13 09:34:31;;;;;;;5.65;5.15;;;;;;;;;;5116769;28;20465;-64
2021/04/13 09:37:13;;;;;;;8.65;7.63;;;;;;;;;;5116719;27;20058;-63
2021/04/13 09:39:50;;;;;;;7.13;5.63;;;;;;;;;;5116810;28;20433;-63
2021/04/13 09:42:25;;;;;;;4.78;4.38;;;;;;;;;;5116840;28;20480;-63
2021/04/13 09:44:59;;;;;;;3.72;3.28;;;;;;;;;;5116624;28;20699;-63
2021/04/13 09:47:37;;;;;;;4.60;3.50;;;;;;;;;;5115014;28;20124;-64
2021/04/13 09:50:12;;;;;;;5.13;3.97;;;;;;;;;;5116416;28;20023;-64
2021/04/13 09:52:57;;;;;;;4.50;3.75;;;;;;;;;;5116230;28;20479;-64
2021/04/13 09:55:22;;;;;;;5.75;4.30;;;;;;;;;;5116365;28;20055;-64
2021/04/13 09:58:08;;;;;;;7.28;6.10;;;;;;;;;;5131877;27;20078;-64
2021/04/13 10:00:42;;;;;;;7.32;5.22;;;;;;;;;;5084006;28;20047;-64
2021/04/13 10:03:32;;;;;;;11.43;8.32;;;;;;;;;;5114901;28;20043;-64
2021/04/13 10:05:59;;;;;;;10.05;8.35;;;;;;;;;;5116301;28;20038;-64
2021/04/13 10:08:28;;;;;;;13.25;10.60;;;;;;;;;;5115607;28;20104;-64
2021/04/13 10:10:57;;;;;;;8.60;7.68;;;;;;;;;;5116121;28;20118;-64
2021/04/13 10:13:22;;;;;;;14.32;10.35;;;;;;;;;;5116199;28;20055;-64
2021/04/13 10:16:08;;;;;;;7.78;5.95;;;;;;;;;;5115959;28;20051;-64
2021/04/13 10:18:37;;;;;;;3.83;3.22;;;;;;;;;;5115478;28;20496;-65
2021/04/13 10:21:14;;;;;;;5.18;4.53;;;;;;;;;;5115793;28;20338;-64
2021/04/13 10:24:00;;;;;;;4.32;3.85;;;;;;;;;;5115896;28;20030;-64
2021/04/13 10:27:00;;;;;;;3.97;3.20;;;;;;;;;;5083478;28;20047;-64
2021/04/13 10:29:26;;;;;;;7.40;4.32;;;;;;;;;;5036128;28;20116;-64
2021/04/13 10:32:03;;;;;;;9.32;6.88;;;;;;;;;;5102295;28;20126;-64
2021/04/13 10:34:32;;;;;;;5.75;4.88;;;;;;;;;;5115660;28;20038;-65
2021/04/13 10:37:16;;;;;;;16.02;7.50;;;;;;;;;;5115661;28;20046;-65
2021/04/13 10:39:44;;;;;;;6.13;4.00;;;;;;;;;;5115188;28;20047;-65
2021/04/13 10:42:23;;;;;;;15.35;9.57;;;;;;;;;;5115501;28;20016;-64
2021/04/13 10:45:00;;;;;;;18.15;10.52;;;;;;;;;;5115181;28;20027;-64
2021/04/13 10:47:38;;;;;;;5.38;4.82;;;;;;;;;;5115452;28;20028;-64
2021/04/13 10:50:17;;;;;;;3.65;3.35;;;;;;;;;;5115164;28;20032;-64
2021/04/13 10:53:01;;;;;;;19.20;9.98;;;;;;;;;;5113686;28;20028;-64
2021/04/13 10:55:33;;;;;;;5.32;4.22;;;;;;;;;;5115097;28;20043;-64
2021/04/13 10:58:17;;;;;;;19.30;8.77;;;;;;;;;;5114820;28;20040;-65
2021/04/13 11:01:03;;;;;;;5.15;4.22;;;;;;;;;;5115300;28;20024;-64
2021/04/13 11:03:35;;;;;;;8.23;5.95;;;;;;;;;;5114707;28;20031;-65
2021/04/13 11:06:19;;;;;;;21.35;10.00;;;;;;;;;;5113522;28;20031;-64
2021/04/13 11:09:03;;;;;;;69.63;31.30;;;;;;;;;;5114673;28;20512;-64
2021/04/13 11:11:41;;;;;;;42.28;20.33;;;;;;;;;;5130723;27;20028;-64
2021/04/13 11:14:10;;;;;;;254.45;100.55;;;;;;;;;;5114041;28;20042;-64
2021/04/13 11:16:54;;;;;;;41.42;17.70;;;;;;;;;;5114554;28;20052;-64
2021/04/13 11:19:22;;;;;;;239.27;90.55;;;;;;;;;;5113610;28;20441;-64
2021/04/13 11:21:47;;;;;;;366.42;145.05;;;;;;;;;;5113129;28;20051;-64
2021/04/13 11:24:22;;;;;;;373.77;137.90;;;;;;;;;;5114498;28;20047;-64
2021/04/13 11:27:07;;;;;;;363.08;137.40;;;;;;;;;;5114526;28;20023;-64
2021/04/13 11:29:52;;;;;;;269.48;102.47;;;;;;;;;;5113099;28;20389;-64
2021/04/13 11:32:37;;;;;;;391.83;134.45;;;;;;;;;;5114383;28;20024;-64
2021/04/13 11:35:10;;;;;;;317.75;129.60;;;;;;;;;;5114151;28;20365;-64
2021/04/13 11:37:56;;;;;;;854.53;344.73;;;;;;;;;;5114375;28;20028;-64
2021/04/13 11:40:37;;;;;;;512.88;195.80;;;;;;;;;;5114470;28;20028;-64
2021/04/13 11:43:04;;;;;;;272.25;91.35;;;;;;;;;;5113850;28;20044;-64
2021/04/13 11:45:29;;;;;;;311.60;104.22;;;;;;;;;;5112880;28;20102;-64
2021/04/13 11:47:55;;;;;;;400.90;134.18;;;;;;;;;;5113972;28;20059;-64
2021/04/13 11:50:23;;;;;;;157.82;59.88;;;;;;;;;;5114161;28;20019;-64
2021/04/13 11:53:04;;;;;;;700.90;282.95;;;;;;;;;;5113839;28;20125;-64
2021/04/13 11:55:30;;;;;;;580.55;245.82;;;;;;;;;;5113853;28;20016;-64
2021/04/13 11:58:03;;;;;;;537.90;208.07;;;;;;;;;;5129421;27;20039;-68
2021/04/13 12:00:30;;;;;;;11.85;8.43;;;;;;;;;;5114105;28;20023;-68
2021/04/13 12:03:01;;;;;;;359.20;126.70;;;;;;;;;;5113844;28;20031;-68
2021/04/13 12:05:33;;;;;;;130.77;52.17;;;;;;;;;;5129931;27;20024;-68
2021/04/13 12:07:59;;;;;;;485.27;216.48;;;;;;;;;;5113733;28;20445;-69
2021/04/13 12:10:27;;;;;;;516.88;231.60;;;;;;;;;;5114260;28;20107;-68
2021/04/13 12:12:54;;;;;;;684.15;318.92;;;;;;;;;;5114029;28;20020;-69
2021/04/13 12:15:19;;;;;;;463.75;194.10;;;;;;;;;;5113855;28;20023;-68
2021/04/13 12:17:45;;;;;;;81.75;37.78;;;;;;;;;;5113878;28;20144;-69
2021/04/13 12:20:30;;;;;;;228.68;101.03;;;;;;;;;;5113897;28;20039;-69
2021/04/13 12:23:00;;;;;;;430.00;229.30;;;;;;;;;;5113985;28;20028;-69
2021/04/13 12:25:58;;;;;;;104.55;53.78;;;;;;;;;;5113928;28;20119;-69
2021/04/13 12:28:30;;;;;;;19.63;11.70;;;;;;;;;;5078964;28;20071;-69
2021/04/13 12:31:04;;;;;;;339.80;205.43;;;;;;;;;;5115328;28;20111;-69
2021/04/13 12:33:30;;;;;;;40.45;25.75;;;;;;;;;;5118058;28;20469;-69
2021/04/13 12:35:57;;;;;;;41.83;29.75;;;;;;;;;;5117757;28;20114;-69
2021/04/13 12:38:43;;;;;;;38.97;21.77;;;;;;;;;;5116475;28;20085;-69
2021/04/13 12:41:21;;;;;;;56.85;39.95;;;;;;;;;;5106406;28;20039;-69
2021/04/13 12:43:51;;;;;;;41.97;34.25;;;;;;;;;;5117175;28;20050;-64
2021/04/13 12:46:22;;;;;;;23.92;19.63;;;;;;;;;;5117528;28;20069;-63
2021/04/13 12:48:48;;;;;;;37.35;20.27;;;;;;;;;;5117634;28;20115;-64
2021/04/13 12:51:16;;;;;;;23.20;13.75;;;;;;;;;;5117514;27;20023;-63
2021/04/13 12:53:42;;;;;;;12.18;8.60;;;;;;;;;;5117543;28;20024;-63
2021/04/13 12:56:10;;;;;;;16.38;10.68;;;;;;;;;;5117419;28;20073;-63
2021/04/13 12:58:37;;;;;;;17.52;11.00;;;;;;;;;;5117099;28;20046;-64
2021/04/13 13:01:04;;;;;;;17.98;11.48;;;;;;;;;;5116399;28;20065;-63
2021/04/13 13:03:31;;;;;;;41.85;25.08;;;;;;;;;;5132755;27;20035;-64
2021/04/13 13:05:57;;;;;;;34.10;19.80;;;;;;;;;;5117618;28;20030;-63
2021/04/13 13:08:29;;;;;;;33.45;22.17;;;;;;;;;;5117084;28;20036;-63
2021/04/13 13:11:06;;;;;;;35.00;18.52;;;;;;;;;;5117202;28;20119;-63
2021/04/13 13:13:34;;;;;;;100.65;60.63;;;;;;;;;;5132605;27;20494;-63
2021/04/13 13:16:09;;;;;;;61.90;37.38;;;;;;;;;;5117095;28;20106;-63
2021/04/13 13:18:37;;;;;;;43.53;27.88;;;;;;;;;;5117235;28;20028;-63
2021/04/13 13:21:04;;;;;;;30.85;16.85;;;;;;;;;;5117202;28;20028;-63
2021/04/13 13:23:36;;;;;;;35.05;26.50;;;;;;;;;;5117250;28;20035;-63
2021/04/13 13:26:12;;;;;;;19.50;12.70;;;;;;;;;;5117096;28;20521;-63
2021/04/13 13:28:42;;;;;;;169.38;86.95;;;;;;;;;;5116794;28;20028;-63
2021/04/13 13:31:08;;;;;;;118.57;59.03;;;;;;;;;;5116443;28;20031;-63
2021/04/13 13:33:35;;;;;;;24.38;13.18;;;;;;;;;;5116640;28;20064;-63
2021/04/13 13:36:00;;;;;;;11.70;7.85;;;;;;;;;;5116274;28;20025;-63
2021/04/13 13:38:26;;;;;;;42.65;21.52;;;;;;;;;;5116428;28;20023;-63
2021/04/13 13:40:54;;;;;;;12.40;7.35;;;;;;;;;;5116420;28;20119;-63
2021/04/13 13:43:25;;;;;;;11.60;8.10;;;;;;;;;;5097361;28;20026;-63
2021/04/13 13:45:51;;;;;;;10.93;7.32;;;;;;;;;;5116372;28;20392;-63
2021/04/13 13:48:18;;;;;;;9.93;7.35;;;;;;;;;;5115085;28;20023;-63
2021/04/13 13:50:45;;;;;;;12.23;7.63;;;;;;;;;;5116372;27;20031;-63
2021/04/13 13:53:21;;;;;;;21.80;15.05;;;;;;;;;;5116310;28;20023;-63
2021/04/13 13:55:58;;;;;;;16.48;9.68;;;;;;;;;;5116233;28;20063;-63
2021/04/13 13:58:26;;;;;;;18.10;11.40;;;;;;;;;;5115973;28;20036;-63
2021/04/13 14:00:51;;;;;;;15.57;11.70;;;;;;;;;;5116040;28;20032;-63
2021/04/13 14:03:17;;;;;;;21.30;11.32;;;;;;;;;;5115815;28;20085;-66
2021/04/13 14:05:49;;;;;;;19.02;12.68;;;;;;;;;;5116012;28;20350;-66
2021/04/13 14:08:19;;;;;;;18.67;11.65;;;;;;;;;;5116063;28;20066;-66
2021/04/13 14:10:45;;;;;;;13.83;9.43;;;;;;;;;;5116014;28;20412;-66
2021/04/13 14:13:20;;;;;;;11.70;8.15;;;;;;;;;;5115948;28;20750;-66
2021/04/13 14:15:48;;;;;;;11.23;7.97;;;;;;;;;;5115764;27;20038;-66
2021/04/13 14:18:23;;;;;;;15.77;10.52;;;;;;;;;;5114556;28;20353;-66
2021/04/13 14:20:59;;;;;;;13.75;8.63;;;;;;;;;;5131512;27;20055;-63
2021/04/13 14:23:24;;;;;;;9.23;6.07;;;;;;;;;;5115760;28;20669;-63
2021/04/13 14:25:50;;;;;;;12.93;8.07;;;;;;;;;;5097543;28;20043;-63
2021/04/13 14:28:21;;;;;;;20.92;17.05;;;;;;;;;;5131474;27;20039;-63
2021/04/13 14:30:47;;;;;;;9.60;6.78;;;;;;;;;;5131216;27;20027;-63
2021/04/13 14:33:13;;;;;;;8.75;7.85;;;;;;;;;;5115425;28;20377;-63
2021/04/13 14:35:41;;;;;;;15.60;8.48;;;;;;;;;;5113938;28;20036;-63
2021/04/13 14:38:11;;;;;;;18.10;12.10;;;;;;;;;;5115490;28;20023;-63
2021/04/13 14:40:37;;;;;;;13.07;7.47;;;;;;;;;;5115700;28;20047;-63
2021/04/13 14:43:04;;;;;;;19.70;14.32;;;;;;;;;;5115525;28;20457;-63
2021/04/13 14:45:31;;;;;;;13.77;9.25;;;;;;;;;;5131201;27;20024;-63
2021/04/13 14:48:01;;;;;;;15.23;8.25;;;;;;;;;;5115136;28;20014;-63
2021/04/13 14:50:32;;;;;;;29.30;24.40;;;;;;;;;;5115412;28;20024;-63
2021/04/13 14:52:58;;;;;;;37.65;33.60;;;;;;;;;;5114966;28;20381;-63
2021/04/13 14:55:24;;;;;;;16.60;8.48;;;;;;;;;;5115376;28;20020;-63
2021/04/13 14:57:54;;;;;;;16.52;9.98;;;;;;;;;;5114697;28;20043;-63